createdAt,value
2018-09-27T00:00:53.698Z,8.6
2018-09-27T00:01:55.067Z,8.6
2018-09-27T00:02:56.416Z,8.7
2018-09-27T00:03:57.771Z,8.7
2018-09-27T00:04:59.137Z,8.7
2018-09-27T00:06:00.498Z,8.7
2018-09-27T00:07:01.849Z,8.6
2018-09-27T00:08:03.212Z,8.7
2018-09-27T00:09:04.556Z,8.6
2018-09-27T00:10:05.907Z,8.6
2018-09-27T00:11:07.256Z,8.5
2018-09-27T00:12:08.611Z,8.5
2018-09-27T00:13:09.963Z,8.5
2018-09-27T00:14:11.337Z,8.5
2018-09-27T00:15:12.700Z,8.5
2018-09-27T00:16:14.046Z,8.5
2018-09-27T00:17:15.387Z,8.4
2018-09-27T00:18:16.751Z,8.4
2018-09-27T00:19:18.117Z,8.5
2018-09-27T00:20:19.456Z,8.4
2018-09-27T00:21:20.816Z,8.5
2018-09-27T00:22:22.175Z,8.5
2018-09-27T00:23:23.526Z,8.4
2018-09-27T00:24:24.881Z,8.4
2018-09-27T00:25:26.236Z,8.5
2018-09-27T00:26:27.596Z,8.4
2018-09-27T00:27:28.938Z,8.4
2018-09-27T00:28:30.300Z,8.5
2018-09-27T00:29:31.675Z,8.4
2018-09-27T00:30:33.030Z,8.4
2018-09-27T00:31:34.373Z,8.5
2018-09-27T00:32:35.726Z,8.4
2018-09-27T00:33:37.071Z,8.4
2018-09-27T00:34:38.427Z,8.3
2018-09-27T00:35:39.771Z,8.4
2018-09-27T00:36:41.138Z,8.3
2018-09-27T00:37:42.482Z,8.3
2018-09-27T00:38:43.827Z,8.3
2018-09-27T00:39:45.183Z,8.4
2018-09-27T00:40:46.553Z,8.3
2018-09-27T00:41:47.911Z,8.3
2018-09-27T00:42:49.262Z,8.4
2018-09-27T00:43:50.605Z,8.3
2018-09-27T00:44:51.970Z,8.3
2018-09-27T00:45:53.330Z,8.4
2018-09-27T00:46:54.685Z,8.3
2018-09-27T00:47:56.048Z,8.3
2018-09-27T00:48:57.414Z,8.3
2018-09-27T00:49:58.768Z,8.3
2018-09-27T00:51:00.116Z,8.3
2018-09-27T00:52:01.463Z,8.3
2018-09-27T00:53:02.816Z,8.3
2018-09-27T00:54:04.181Z,8.3
2018-09-27T00:55:05.549Z,8.2
2018-09-27T00:56:06.890Z,8.3
2018-09-27T00:57:08.238Z,8.3
2018-09-27T00:58:09.601Z,8.3
2018-09-27T00:59:10.950Z,8.2
2018-09-27T01:00:12.298Z,8.2
2018-09-27T01:01:13.660Z,8.2
2018-09-27T01:02:15.013Z,8.2
2018-09-27T01:03:16.365Z,8.2
2018-09-27T01:04:17.716Z,8.2
2018-09-27T01:05:19.072Z,8.2
2018-09-27T01:06:20.417Z,8.2
2018-09-27T01:07:21.777Z,8.2
2018-09-27T01:08:23.127Z,8.2
2018-09-27T01:09:24.486Z,8.1
2018-09-27T01:10:25.837Z,8.1
2018-09-27T01:11:27.177Z,8.2
2018-09-27T01:12:28.528Z,8.1
2018-09-27T01:13:29.892Z,8.2
2018-09-27T01:14:31.245Z,8.1
2018-09-27T01:15:32.592Z,8.2
2018-09-27T01:16:33.940Z,8.1
2018-09-27T01:17:35.340Z,8.1
2018-09-27T01:18:36.640Z,8.1
2018-09-27T01:19:37.985Z,8.2
2018-09-27T01:20:39.330Z,8.1
2018-09-27T01:21:40.686Z,8.1
2018-09-27T01:22:42.041Z,8.1
2018-09-27T01:23:43.387Z,8.1
2018-09-27T01:24:44.758Z,8.2
2018-09-27T01:25:46.103Z,8.2
2018-09-27T01:26:47.460Z,8.1
2018-09-27T01:27:48.817Z,8.2
2018-09-27T01:28:50.172Z,8.1
2018-09-27T01:29:51.525Z,8.1
2018-09-27T01:30:52.870Z,8.1
2018-09-27T01:31:54.215Z,8.0
2018-09-27T01:32:55.562Z,8.1
2018-09-27T01:33:56.926Z,8.1
2018-09-27T01:34:58.280Z,8.1
2018-09-27T01:35:59.635Z,8.0
2018-09-27T01:37:00.987Z,8.0
2018-09-27T01:38:02.356Z,8.0
2018-09-27T01:39:03.715Z,7.9
2018-09-27T01:40:05.052Z,8.0
2018-09-27T01:41:06.413Z,8.0
2018-09-27T01:42:07.766Z,8.0
2018-09-27T01:43:09.121Z,8.0
2018-09-27T01:44:10.472Z,8.0
2018-09-27T01:45:11.826Z,8.0
2018-09-27T01:46:13.165Z,8.0
2018-09-27T01:47:14.608Z,8.0
2018-09-27T01:48:15.826Z,8.0
2018-09-27T01:49:17.187Z,8.0
2018-09-27T01:50:18.538Z,8.0
2018-09-27T01:51:19.888Z,8.1
2018-09-27T01:52:21.240Z,8.1
2018-09-27T01:53:22.585Z,8.0
2018-09-27T01:54:23.952Z,8.1
2018-09-27T01:55:25.290Z,8.0
2018-09-27T01:56:26.652Z,8.0
2018-09-27T01:57:28.007Z,7.9
2018-09-27T01:58:29.363Z,8.0
2018-09-27T01:59:30.717Z,8.0
2018-09-27T02:00:32.067Z,8.0
2018-09-27T02:01:33.421Z,8.0
2018-09-27T02:02:34.772Z,7.9
2018-09-27T02:03:36.121Z,7.9
2018-09-27T02:04:37.496Z,7.9
2018-09-27T02:05:38.841Z,7.9
2018-09-27T02:06:40.197Z,7.8
2018-09-27T02:07:41.576Z,7.9
2018-09-27T02:08:42.928Z,7.9
2018-09-27T02:09:44.279Z,8.0
2018-09-27T02:10:45.628Z,7.9
2018-09-27T02:11:46.982Z,7.9
2018-09-27T02:12:48.336Z,7.9
2018-09-27T02:13:49.685Z,7.9
2018-09-27T02:14:51.058Z,7.8
2018-09-27T02:15:52.417Z,7.9
2018-09-27T02:16:53.761Z,7.8
2018-09-27T02:17:55.122Z,7.9
2018-09-27T02:18:56.468Z,7.9
2018-09-27T02:19:57.823Z,7.9
2018-09-27T02:20:59.176Z,7.9
2018-09-27T02:22:00.526Z,7.8
2018-09-27T02:23:01.887Z,7.9
2018-09-27T02:24:03.233Z,7.9
2018-09-27T02:25:04.608Z,7.9
2018-09-27T02:26:05.943Z,7.9
2018-09-27T02:27:07.303Z,7.9
2018-09-27T02:28:08.653Z,7.9
2018-09-27T02:29:10.000Z,7.8
2018-09-27T02:30:11.362Z,7.9
2018-09-27T02:31:12.713Z,7.8
2018-09-27T02:32:14.063Z,7.8
2018-09-27T02:33:15.424Z,7.8
2018-09-27T02:34:16.783Z,7.8
2018-09-27T02:35:18.133Z,7.8
2018-09-27T02:36:19.477Z,7.8
2018-09-27T02:37:20.847Z,7.9
2018-09-27T02:38:22.192Z,7.8
2018-09-27T02:39:23.548Z,7.9
2018-09-27T02:40:24.896Z,7.9
2018-09-27T02:41:26.252Z,7.9
2018-09-27T02:42:27.606Z,7.9
2018-09-27T02:43:28.952Z,7.8
2018-09-27T02:44:30.308Z,7.8
2018-09-27T02:45:31.663Z,7.9
2018-09-27T02:46:33.018Z,7.8
2018-09-27T02:47:34.377Z,7.8
2018-09-27T02:48:35.720Z,7.8
2018-09-27T02:49:37.080Z,7.8
2018-09-27T02:50:38.427Z,7.7
2018-09-27T02:51:39.776Z,7.7
2018-09-27T02:53:20.631Z,7.7
2018-09-27T02:54:21.976Z,7.7
2018-09-27T02:55:23.331Z,7.7
2018-09-27T02:56:24.692Z,7.7
2018-09-27T02:57:26.035Z,7.7
2018-09-27T02:58:27.380Z,7.7
2018-09-27T02:59:28.729Z,7.7
2018-09-27T03:00:30.088Z,7.7
2018-09-27T03:01:31.428Z,7.6
2018-09-27T03:02:32.787Z,7.6
2018-09-27T03:03:34.136Z,7.7
2018-09-27T03:04:35.485Z,7.6
2018-09-27T03:05:36.828Z,7.7
2018-09-27T03:06:38.182Z,7.6
2018-09-27T03:07:39.558Z,7.6
2018-09-27T03:08:40.903Z,7.6
2018-09-27T03:09:42.243Z,7.6
2018-09-27T03:10:43.603Z,7.6
2018-09-27T03:11:44.960Z,7.6
2018-09-27T03:12:46.304Z,7.6
2018-09-27T03:13:47.672Z,7.6
2018-09-27T03:14:48.965Z,7.6
2018-09-27T03:15:50.317Z,7.7
2018-09-27T03:16:51.672Z,7.6
2018-09-27T03:17:53.033Z,7.6
2018-09-27T03:18:54.374Z,7.6
2018-09-27T03:19:55.731Z,7.6
2018-09-27T03:20:57.118Z,7.6
2018-09-27T03:21:58.383Z,7.5
2018-09-27T03:22:59.734Z,7.6
2018-09-27T03:24:01.083Z,7.6
2018-09-27T03:25:02.444Z,7.5
2018-09-27T03:26:03.779Z,7.6
2018-09-27T03:27:05.122Z,7.5
2018-09-27T03:28:06.487Z,7.5
2018-09-27T03:29:07.832Z,7.6
2018-09-27T03:30:09.188Z,7.6
2018-09-27T03:31:10.540Z,7.5
2018-09-27T03:32:11.883Z,7.6
2018-09-27T03:33:13.237Z,7.5
2018-09-27T03:34:14.589Z,7.5
2018-09-27T03:35:15.988Z,7.5
2018-09-27T03:36:17.295Z,7.5
2018-09-27T03:37:19.497Z,7.5
2018-09-27T03:38:20.857Z,7.5
2018-09-27T03:39:22.217Z,7.5
2018-09-27T03:40:23.577Z,7.5
2018-09-27T03:41:24.899Z,7.5
2018-09-27T03:42:26.249Z,7.5
2018-09-27T03:43:27.604Z,7.5
2018-09-27T03:44:28.949Z,7.4
2018-09-27T03:45:30.319Z,7.4
2018-09-27T03:46:31.667Z,7.3
2018-09-27T03:47:33.023Z,7.4
2018-09-27T03:48:34.374Z,7.5
2018-09-27T03:49:35.724Z,7.3
2018-09-27T03:50:37.088Z,7.3
2018-09-27T03:51:38.449Z,7.3
2018-09-27T03:52:39.807Z,7.3
2018-09-27T03:53:41.144Z,7.4
2018-09-27T03:54:42.498Z,7.4
2018-09-27T03:55:43.854Z,7.4
2018-09-27T03:56:45.209Z,7.4
2018-09-27T03:57:46.589Z,7.4
2018-09-27T03:58:47.917Z,7.3
2018-09-27T03:59:49.388Z,7.3
2018-09-27T04:00:50.730Z,7.3
2018-09-27T04:01:52.108Z,7.3
2018-09-27T04:02:53.463Z,7.2
2018-09-27T04:03:54.804Z,7.3
2018-09-27T04:04:56.161Z,7.3
2018-09-27T04:05:57.497Z,7.3
2018-09-27T04:06:58.874Z,7.4
2018-09-27T04:08:00.254Z,7.2
2018-09-27T04:09:01.637Z,7.2
2018-09-27T04:10:02.979Z,7.2
2018-09-27T04:11:04.329Z,7.2
2018-09-27T04:12:05.687Z,7.2
2018-09-27T04:13:07.042Z,7.2
2018-09-27T04:14:08.410Z,7.2
2018-09-27T04:15:09.765Z,7.3
2018-09-27T04:16:11.147Z,7.2
2018-09-27T04:17:12.504Z,7.3
2018-09-27T04:18:13.917Z,7.3
2018-09-27T04:19:15.287Z,7.3
2018-09-27T04:20:16.630Z,7.2
2018-09-27T04:21:17.987Z,7.2
2018-09-27T04:22:19.378Z,7.2
2018-09-27T04:23:20.734Z,7.1
2018-09-27T04:24:22.098Z,7.1
2018-09-27T04:25:23.455Z,7.1
2018-09-27T04:26:24.802Z,7.1
2018-09-27T04:27:26.156Z,7.1
2018-09-27T04:28:27.516Z,7.1
2018-09-27T04:29:28.860Z,7.1
2018-09-27T04:30:30.216Z,7.1
2018-09-27T04:31:31.580Z,7.1
2018-09-27T04:32:32.964Z,7.1
2018-09-27T04:33:34.298Z,7.1
2018-09-27T04:34:35.644Z,7.1
2018-09-27T04:35:37.014Z,7.1
2018-09-27T04:36:38.358Z,7.1
2018-09-27T04:37:39.737Z,7.1
2018-09-27T04:38:41.092Z,7.2
2018-09-27T04:39:42.483Z,7.1
2018-09-27T04:40:43.787Z,7.1
2018-09-27T04:41:45.147Z,7.1
2018-09-27T04:42:46.496Z,7.1
2018-09-27T04:43:47.846Z,7.1
2018-09-27T04:44:49.202Z,7.1
2018-09-27T04:45:50.601Z,7.0
2018-09-27T04:46:51.913Z,7.1
2018-09-27T04:47:53.301Z,7.1
2018-09-27T04:48:54.727Z,7.1
2018-09-27T04:49:56.077Z,7.0
2018-09-27T04:50:57.427Z,7.1
2018-09-27T04:51:58.788Z,7.1
2018-09-27T04:53:00.144Z,7.1
2018-09-27T04:54:01.481Z,7.1
2018-09-27T04:55:02.843Z,7.2
2018-09-27T04:56:04.209Z,7.1
2018-09-27T04:57:05.559Z,7.2
2018-09-27T04:58:06.897Z,7.2
2018-09-27T04:59:08.287Z,7.2
2018-09-27T05:00:09.735Z,7.2
2018-09-27T05:01:10.976Z,7.2
2018-09-27T05:02:12.333Z,7.2
2018-09-27T05:03:13.678Z,7.2
2018-09-27T05:04:15.038Z,7.1
2018-09-27T05:05:16.384Z,7.1
2018-09-27T05:06:17.793Z,7.0
2018-09-27T05:07:19.105Z,7.1
2018-09-27T05:08:20.457Z,7.0
2018-09-27T05:09:21.805Z,7.1
2018-09-27T05:10:23.155Z,7.1
2018-09-27T05:11:24.507Z,7.1
2018-09-27T05:12:25.905Z,7.1
2018-09-27T05:13:27.267Z,7.1
2018-09-27T05:14:28.620Z,7.1
2018-09-27T05:15:30.018Z,7.0
2018-09-27T05:16:31.323Z,7.0
2018-09-27T05:17:32.673Z,7.0
2018-09-27T05:18:34.045Z,7.0
2018-09-27T05:19:35.393Z,7.0
2018-09-27T05:20:36.763Z,7.0
2018-09-27T05:21:38.165Z,7.1
2018-09-27T05:22:39.430Z,7.0
2018-09-27T05:23:40.784Z,7.1
2018-09-27T05:24:42.135Z,7.0
2018-09-27T05:25:43.488Z,7.1
2018-09-27T05:26:44.830Z,7.0
2018-09-27T05:27:46.266Z,7.0
2018-09-27T05:28:47.552Z,7.0
2018-09-27T05:29:49.050Z,7.0
2018-09-27T05:30:50.440Z,7.0
2018-09-27T05:31:51.785Z,6.9
2018-09-27T05:32:53.158Z,7.0
2018-09-27T05:33:54.521Z,7.0
2018-09-27T05:34:55.875Z,7.0
2018-09-27T05:35:57.233Z,7.0
2018-09-27T05:36:58.594Z,7.0
2018-09-27T05:37:59.959Z,7.0
2018-09-27T05:39:01.299Z,7.0
2018-09-27T05:40:02.656Z,7.0
2018-09-27T05:41:04.028Z,7.0
2018-09-27T05:42:05.385Z,6.9
2018-09-27T05:43:06.733Z,6.9
2018-09-27T05:44:08.099Z,7.0
2018-09-27T05:45:09.452Z,7.0
2018-09-27T05:46:10.801Z,6.9
2018-09-27T05:47:12.154Z,7.0
2018-09-27T05:48:13.511Z,7.0
2018-09-27T05:49:14.881Z,7.0
2018-09-27T05:50:16.233Z,7.0
2018-09-27T05:51:17.580Z,7.0
2018-09-27T05:52:18.940Z,7.0
2018-09-27T05:53:20.299Z,7.0
2018-09-27T05:54:21.740Z,7.0
2018-09-27T05:55:23.094Z,7.0
2018-09-27T05:56:24.449Z,6.9
2018-09-27T05:57:25.837Z,7.0
2018-09-27T05:58:27.167Z,7.0
2018-09-27T05:59:28.521Z,7.1
2018-09-27T06:00:29.864Z,7.1
2018-09-27T06:01:31.233Z,7.1
2018-09-27T06:02:32.586Z,7.1
2018-09-27T06:03:33.965Z,7.1
2018-09-27T06:04:35.306Z,7.1
2018-09-27T06:05:36.665Z,7.2
2018-09-27T06:06:38.036Z,7.2
2018-09-27T06:07:39.400Z,7.1
2018-09-27T06:08:40.751Z,7.1
2018-09-27T06:09:42.122Z,7.2
2018-09-27T06:10:43.431Z,7.2
2018-09-27T06:11:44.844Z,7.2
2018-09-27T06:12:46.224Z,7.2
2018-09-27T06:13:47.606Z,7.2
2018-09-27T06:14:48.968Z,7.3
2018-09-27T06:15:50.335Z,7.2
2018-09-27T06:16:51.688Z,7.3
2018-09-27T06:17:53.044Z,7.3
2018-09-27T06:18:54.413Z,7.3
2018-09-27T06:19:55.807Z,7.3
2018-09-27T06:20:57.125Z,7.2
2018-09-27T06:21:58.545Z,7.2
2018-09-27T06:22:59.913Z,7.2
2018-09-27T06:24:01.301Z,7.2
2018-09-27T06:25:02.649Z,7.2
2018-09-27T06:26:04.061Z,7.2
2018-09-27T06:27:05.380Z,7.2
2018-09-27T06:28:06.736Z,7.2
2018-09-27T06:29:08.103Z,7.2
2018-09-27T06:30:09.454Z,7.3
2018-09-27T06:31:10.812Z,7.2
2018-09-27T06:32:12.170Z,7.2
2018-09-27T06:33:13.523Z,7.3
2018-09-27T06:34:14.882Z,7.2
2018-09-27T06:35:16.234Z,7.3
2018-09-27T06:36:17.583Z,7.4
2018-09-27T06:37:18.955Z,7.3
2018-09-27T06:38:20.318Z,7.3
2018-09-27T06:39:21.681Z,7.4
2018-09-27T06:40:23.040Z,7.3
2018-09-27T06:41:24.426Z,7.4
2018-09-27T06:42:25.720Z,7.5
2018-09-27T06:43:27.095Z,7.4
2018-09-27T06:44:28.595Z,7.5
2018-09-27T06:45:29.904Z,7.5
2018-09-27T06:46:31.258Z,7.6
2018-09-27T06:47:32.630Z,7.6
2018-09-27T06:48:34.024Z,7.6
2018-09-27T06:49:35.339Z,7.8
2018-09-27T06:50:36.803Z,8.0
2018-09-27T06:51:38.069Z,8.4
2018-09-27T06:52:39.476Z,8.7
2018-09-27T06:53:40.835Z,8.9
2018-09-27T06:54:42.264Z,9.1
2018-09-27T06:55:43.660Z,9.4
2018-09-27T06:56:44.959Z,9.6
2018-09-27T06:57:46.250Z,9.9
2018-09-27T06:58:47.606Z,10.2
2018-09-27T06:59:49.376Z,10.5
2018-09-27T07:00:50.753Z,10.7
2018-09-27T07:01:52.103Z,10.9
2018-09-27T07:02:53.479Z,11.1
2018-09-27T07:03:54.839Z,11.2
2018-09-27T07:04:56.224Z,11.4
2018-09-27T07:05:57.566Z,11.5
2018-09-27T07:06:58.924Z,11.6
2018-09-27T07:08:00.294Z,11.7
2018-09-27T07:09:01.659Z,11.8
2018-09-27T07:10:03.021Z,12.0
2018-09-27T07:11:04.393Z,12.2
2018-09-27T07:12:05.774Z,12.3
2018-09-27T07:13:07.124Z,12.5
2018-09-27T07:14:08.485Z,12.5
2018-09-27T07:15:09.865Z,12.7
2018-09-27T07:16:11.255Z,13.0
2018-09-27T07:17:12.614Z,13.2
2018-09-27T07:18:13.974Z,13.4
2018-09-27T07:19:15.355Z,13.4
2018-09-27T07:20:16.757Z,13.6
2018-09-27T07:21:18.105Z,13.8
2018-09-27T07:22:19.483Z,13.8
2018-09-27T07:23:20.844Z,14.1
2018-09-27T07:24:22.221Z,14.3
2018-09-27T07:25:23.594Z,14.3
2018-09-27T07:26:25.024Z,14.5
2018-09-27T07:27:26.330Z,14.7
2018-09-27T07:28:28.392Z,14.9
2018-09-27T07:29:29.816Z,14.8
2018-09-27T07:30:31.181Z,14.9
2018-09-27T07:31:32.567Z,14.8
2018-09-27T07:32:34.007Z,14.8
2018-09-27T07:33:35.266Z,14.7
2018-09-27T07:34:36.635Z,14.8
2018-09-27T07:35:38.000Z,14.7
2018-09-27T07:36:39.379Z,14.7
2018-09-27T07:37:40.741Z,14.7
2018-09-27T07:38:42.288Z,14.8
2018-09-27T07:39:43.500Z,14.9
2018-09-27T07:40:44.859Z,14.6
2018-09-27T07:41:46.242Z,14.7
2018-09-27T07:42:47.654Z,14.4
2018-09-27T07:43:48.976Z,14.5
2018-09-27T07:44:50.352Z,14.6
2018-09-27T07:45:51.720Z,14.7
2018-09-27T07:46:53.087Z,14.9
2018-09-27T07:47:54.465Z,14.7
2018-09-27T07:48:55.842Z,14.8
2018-09-27T07:49:57.199Z,14.9
2018-09-27T07:50:58.580Z,15.0
2018-09-27T07:51:59.966Z,14.9
2018-09-27T07:53:01.370Z,15.1
2018-09-27T07:54:02.740Z,15.1
2018-09-27T07:55:04.120Z,15.2
2018-09-27T07:56:05.486Z,15.2
2018-09-27T07:57:06.860Z,15.3
2018-09-27T07:58:08.230Z,15.4
2018-09-27T07:59:09.605Z,15.6
2018-09-27T08:00:10.972Z,15.8
2018-09-27T08:01:12.366Z,16.0
2018-09-27T08:02:13.714Z,16.1
2018-09-27T08:03:15.102Z,16.2
2018-09-27T08:04:16.543Z,16.2
2018-09-27T08:05:17.811Z,16.4
2018-09-27T08:06:19.199Z,16.4
2018-09-27T08:07:20.573Z,16.5
2018-09-27T08:08:21.972Z,16.6
2018-09-27T08:09:23.316Z,16.8
2018-09-27T08:10:24.676Z,17.0
2018-09-27T08:11:26.136Z,17.1
2018-09-27T08:12:28.261Z,17.2
2018-09-27T08:13:28.755Z,17.3
2018-09-27T08:14:30.144Z,17.1
2018-09-27T08:15:31.516Z,17.1
2018-09-27T08:16:32.891Z,17.1
2018-09-27T08:17:34.267Z,16.9
2018-09-27T08:18:35.666Z,17.0
2018-09-27T08:19:37.036Z,17.1
2018-09-27T08:20:38.452Z,17.1
2018-09-27T08:21:39.790Z,17.0
2018-09-27T08:22:41.177Z,17.1
2018-09-27T08:23:42.556Z,17.2
2018-09-27T08:24:43.938Z,17.2
2018-09-27T08:25:45.309Z,17.3
2018-09-27T08:26:46.695Z,17.2
2018-09-27T08:27:48.072Z,17.5
2018-09-27T08:28:49.447Z,17.7
2018-09-27T08:29:50.817Z,17.8
2018-09-27T08:30:52.212Z,17.9
2018-09-27T08:31:53.565Z,17.9
2018-09-27T08:32:54.941Z,18.0
2018-09-27T08:33:56.311Z,18.0
2018-09-27T08:34:57.695Z,18.2
2018-09-27T08:35:59.080Z,18.1
2018-09-27T08:37:00.451Z,18.1
2018-09-27T08:38:01.822Z,18.0
2018-09-27T08:39:03.203Z,17.8
2018-09-27T08:40:04.582Z,17.7
2018-09-27T08:41:05.953Z,17.6
2018-09-27T08:42:07.323Z,17.5
2018-09-27T08:43:08.701Z,17.7
2018-09-27T08:44:10.082Z,17.9
2018-09-27T08:45:11.655Z,17.9
2018-09-27T08:46:12.800Z,18.1
2018-09-27T08:47:14.181Z,18.3
2018-09-27T08:48:15.562Z,18.5
2018-09-27T08:49:16.940Z,18.6
2018-09-27T08:50:18.311Z,18.8
2018-09-27T08:51:19.698Z,19.0
2018-09-27T08:53:00.586Z,19.3
2018-09-27T08:54:01.991Z,19.3
2018-09-27T08:55:03.387Z,19.1
2018-09-27T08:56:04.867Z,18.9
2018-09-27T08:57:06.156Z,18.7
2018-09-27T08:58:07.540Z,18.7
2018-09-27T08:59:08.933Z,18.7
2018-09-27T09:00:10.337Z,18.7
2018-09-27T09:01:11.725Z,18.7
2018-09-27T09:02:13.095Z,18.9
2018-09-27T09:03:14.485Z,19.0
2018-09-27T09:04:15.864Z,19.1
2018-09-27T09:05:17.237Z,19.1
2018-09-27T09:06:18.623Z,19.2
2018-09-27T09:07:20.002Z,19.2
2018-09-27T09:08:22.037Z,19.5
2018-09-27T09:09:23.486Z,19.6
2018-09-27T09:10:24.887Z,19.8
2018-09-27T09:11:26.270Z,19.9
2018-09-27T09:12:27.707Z,19.9
2018-09-27T09:13:29.168Z,20.0
2018-09-27T09:14:30.529Z,20.0
2018-09-27T09:15:31.963Z,19.8
2018-09-27T09:16:33.331Z,19.7
2018-09-27T09:17:34.715Z,19.7
2018-09-27T09:18:36.110Z,19.8
2018-09-27T09:19:37.521Z,20.1
2018-09-27T09:20:38.926Z,20.2
2018-09-27T09:21:40.320Z,20.2
2018-09-27T09:22:41.732Z,20.3
2018-09-27T09:23:43.184Z,20.3
2018-09-27T09:24:44.620Z,20.3
2018-09-27T09:25:46.003Z,20.0
2018-09-27T09:26:47.303Z,19.9
2018-09-27T09:27:48.698Z,19.8
2018-09-27T09:28:50.097Z,19.7
2018-09-27T09:29:51.504Z,19.6
2018-09-27T09:30:52.892Z,19.7
2018-09-27T09:31:54.276Z,19.8
2018-09-27T09:32:55.665Z,19.9
2018-09-27T09:33:57.062Z,20.0
2018-09-27T09:34:58.471Z,19.9
2018-09-27T09:35:59.885Z,19.8
2018-09-27T09:37:01.243Z,19.6
2018-09-27T09:38:02.640Z,19.6
2018-09-27T09:39:04.008Z,19.6
2018-09-27T09:40:05.401Z,19.6
2018-09-27T09:41:06.806Z,19.7
2018-09-27T09:42:08.230Z,19.5
2018-09-27T09:43:09.602Z,19.4
2018-09-27T09:44:11.010Z,19.4
2018-09-27T09:45:12.407Z,19.6
2018-09-27T09:46:13.800Z,19.8
2018-09-27T09:47:15.198Z,20.0
2018-09-27T09:48:16.590Z,20.1
2018-09-27T09:49:17.991Z,20.2
2018-09-27T09:50:19.400Z,20.3
2018-09-27T09:51:21.382Z,20.3
2018-09-27T09:52:22.758Z,20.3
2018-09-27T09:53:24.148Z,20.3
2018-09-27T09:54:25.551Z,20.4
2018-09-27T09:55:26.942Z,20.5
2018-09-27T09:56:28.331Z,20.4
2018-09-27T09:57:29.715Z,20.4
2018-09-27T09:58:31.111Z,20.3
2018-09-27T09:59:32.512Z,20.3
2018-09-27T10:00:33.927Z,20.4
2018-09-27T10:01:35.351Z,20.5
2018-09-27T10:02:36.882Z,20.4
2018-09-27T10:03:38.170Z,20.3
2018-09-27T10:04:39.625Z,20.4
2018-09-27T10:05:40.998Z,20.5
2018-09-27T10:06:42.395Z,20.5
2018-09-27T10:07:43.795Z,20.6
2018-09-27T10:08:45.204Z,20.6
2018-09-27T10:09:46.582Z,20.7
2018-09-27T10:10:47.961Z,20.6
2018-09-27T10:11:49.362Z,20.5
2018-09-27T10:12:50.747Z,20.4
2018-09-27T10:13:52.145Z,20.4
2018-09-27T10:14:53.531Z,20.4
2018-09-27T10:15:54.914Z,20.4
2018-09-27T10:16:56.293Z,20.5
2018-09-27T10:17:57.683Z,20.8
2018-09-27T10:18:59.078Z,21.1
2018-09-27T10:20:00.490Z,21.0
2018-09-27T10:21:01.886Z,21.0
2018-09-27T10:22:03.332Z,20.9
2018-09-27T10:23:04.647Z,20.9
2018-09-27T10:24:06.046Z,20.9
2018-09-27T10:25:07.468Z,21.0
2018-09-27T10:26:08.881Z,21.0
2018-09-27T10:27:10.262Z,21.2
2018-09-27T10:28:11.646Z,21.4
2018-09-27T10:29:13.027Z,21.7
2018-09-27T10:30:14.423Z,21.7
2018-09-27T10:31:15.807Z,21.8
2018-09-27T10:32:17.182Z,22.0
2018-09-27T10:33:18.582Z,22.0
2018-09-27T10:34:20.094Z,22.0
2018-09-27T10:35:21.374Z,22.1
2018-09-27T10:36:22.762Z,22.0
2018-09-27T10:37:24.211Z,22.2
2018-09-27T10:38:25.621Z,22.3
2018-09-27T10:39:27.023Z,22.4
2018-09-27T10:40:28.446Z,22.4
2018-09-27T10:41:29.828Z,22.4
2018-09-27T10:42:31.228Z,22.2
2018-09-27T10:43:32.598Z,22.1
2018-09-27T10:44:34.032Z,22.1
2018-09-27T10:45:35.441Z,22.4
2018-09-27T10:46:36.873Z,22.6
2018-09-27T10:47:38.267Z,22.9
2018-09-27T10:48:40.443Z,23.2
2018-09-27T10:49:41.826Z,23.3
2018-09-27T10:50:43.198Z,23.4
2018-09-27T10:51:44.599Z,23.4
2018-09-27T10:52:45.979Z,23.2
2018-09-27T10:53:47.365Z,23.1
2018-09-27T10:54:48.746Z,23.2
2018-09-27T10:55:50.128Z,23.2
2018-09-27T10:56:51.527Z,23.1
2018-09-27T10:57:52.907Z,23.2
2018-09-27T10:58:54.292Z,23.1
2018-09-27T10:59:55.677Z,23.0
2018-09-27T11:00:57.068Z,22.9
2018-09-27T11:01:58.458Z,23.1
2018-09-27T11:02:59.876Z,23.1
2018-09-27T11:04:01.308Z,23.2
2018-09-27T11:05:02.656Z,23.1
2018-09-27T11:06:04.056Z,23.2
2018-09-27T11:07:05.446Z,23.2
2018-09-27T11:08:06.856Z,23.3
2018-09-27T11:09:08.242Z,23.2
2018-09-27T11:10:09.630Z,23.3
2018-09-27T11:11:11.110Z,23.2
2018-09-27T11:12:12.357Z,23.1
2018-09-27T11:13:13.767Z,23.1
2018-09-27T11:14:15.150Z,23.3
2018-09-27T11:15:16.536Z,23.4
2018-09-27T11:16:17.936Z,23.5
2018-09-27T11:17:19.303Z,23.5
2018-09-27T11:18:20.712Z,23.5
2018-09-27T11:19:22.100Z,23.4
2018-09-27T11:20:23.511Z,23.3
2018-09-27T11:21:24.893Z,23.2
2018-09-27T11:22:26.298Z,23.3
2018-09-27T11:23:27.691Z,23.4
2018-09-27T11:24:29.094Z,23.5
2018-09-27T11:25:30.483Z,23.6
2018-09-27T11:26:31.912Z,23.5
2018-09-27T11:27:33.304Z,23.5
2018-09-27T11:28:34.694Z,23.7
2018-09-27T11:29:36.073Z,23.8
2018-09-27T11:30:37.468Z,23.8
2018-09-27T11:31:38.874Z,23.8
2018-09-27T11:32:40.283Z,23.8
2018-09-27T11:33:41.677Z,23.8
2018-09-27T11:34:43.075Z,24.0
2018-09-27T11:35:44.467Z,23.9
2018-09-27T11:36:45.858Z,23.9
2018-09-27T11:37:47.243Z,24.0
2018-09-27T11:38:48.633Z,24.3
2018-09-27T11:39:50.013Z,24.5
2018-09-27T11:40:51.389Z,24.6
2018-09-27T11:41:52.773Z,24.6
2018-09-27T11:42:54.251Z,24.5
2018-09-27T11:43:55.599Z,24.5
2018-09-27T11:44:56.976Z,24.4
2018-09-27T11:45:58.359Z,24.3
2018-09-27T11:46:59.742Z,24.2
2018-09-27T11:48:01.154Z,24.3
2018-09-27T11:49:02.585Z,24.3
2018-09-27T11:50:04.023Z,24.4
2018-09-27T11:51:05.294Z,24.3
2018-09-27T11:52:06.687Z,24.4
2018-09-27T11:53:08.083Z,24.4
2018-09-27T11:54:09.479Z,24.4
2018-09-27T11:55:10.952Z,24.4
2018-09-27T11:56:12.270Z,24.4
2018-09-27T11:57:13.692Z,24.4
2018-09-27T11:58:15.093Z,24.3
2018-09-27T11:59:16.519Z,24.4
2018-09-27T12:00:17.907Z,24.4
2018-09-27T12:01:19.295Z,24.5
2018-09-27T12:02:20.689Z,24.7
2018-09-27T12:03:22.072Z,24.8
2018-09-27T12:04:23.452Z,25.0
2018-09-27T12:05:24.877Z,25.2
2018-09-27T12:06:26.305Z,25.2
2018-09-27T12:07:27.715Z,25.1
2018-09-27T12:08:29.078Z,25.3
2018-09-27T12:09:30.533Z,25.3
2018-09-27T12:10:31.931Z,25.4
2018-09-27T12:11:33.314Z,25.5
2018-09-27T12:12:34.724Z,25.6
2018-09-27T12:13:36.197Z,25.5
2018-09-27T12:14:37.628Z,25.4
2018-09-27T12:15:39.014Z,25.5
2018-09-27T12:16:40.467Z,25.4
2018-09-27T12:17:41.854Z,25.4
2018-09-27T12:18:43.260Z,25.4
2018-09-27T12:19:44.833Z,25.4
2018-09-27T12:20:46.052Z,25.4
2018-09-27T12:21:47.449Z,25.4
2018-09-27T12:22:48.834Z,25.4
2018-09-27T12:23:50.217Z,25.4
2018-09-27T12:24:51.634Z,25.4
2018-09-27T12:25:53.029Z,25.4
2018-09-27T12:26:54.444Z,25.4
2018-09-27T12:27:55.839Z,25.2
2018-09-27T12:28:57.278Z,25.3
2018-09-27T12:29:58.680Z,25.3
2018-09-27T12:31:00.166Z,25.2
2018-09-27T12:32:02.138Z,25.2
2018-09-27T12:33:03.529Z,25.4
2018-09-27T12:34:04.988Z,25.4
2018-09-27T12:35:06.289Z,25.4
2018-09-27T12:36:07.653Z,25.5
2018-09-27T12:37:09.039Z,25.4
2018-09-27T12:38:10.434Z,25.2
2018-09-27T12:39:11.809Z,25.2
2018-09-27T12:40:13.198Z,25.3
2018-09-27T12:41:14.584Z,25.3
2018-09-27T12:42:16.012Z,25.2
2018-09-27T12:43:17.344Z,25.1
2018-09-27T12:44:18.734Z,25.2
2018-09-27T12:45:20.215Z,25.3
2018-09-27T12:46:21.592Z,25.3
2018-09-27T12:47:22.939Z,25.4
2018-09-27T12:48:24.402Z,25.2
2018-09-27T12:49:25.755Z,25.2
2018-09-27T12:50:27.190Z,25.1
2018-09-27T12:51:28.647Z,25.1
2018-09-27T12:52:30.092Z,25.0
2018-09-27T12:53:31.318Z,25.0
2018-09-27T12:54:32.699Z,25.0
2018-09-27T12:55:34.114Z,24.9
2018-09-27T12:56:35.508Z,24.9
2018-09-27T12:57:36.904Z,24.9
2018-09-27T12:58:38.321Z,24.9
2018-09-27T12:59:39.737Z,25.0
2018-09-27T13:00:41.236Z,25.0
2018-09-27T13:01:42.663Z,24.9
2018-09-27T13:02:44.287Z,25.1
2018-09-27T13:03:45.369Z,25.2
2018-09-27T13:04:46.766Z,25.2
2018-09-27T13:05:48.154Z,25.4
2018-09-27T13:06:49.550Z,25.4
2018-09-27T13:07:50.949Z,25.4
2018-09-27T13:08:52.378Z,25.5
2018-09-27T13:09:53.812Z,25.5
2018-09-27T13:10:55.084Z,25.5
2018-09-27T13:11:56.549Z,25.3
2018-09-27T13:12:57.983Z,25.2
2018-09-27T13:13:59.250Z,25.1
2018-09-27T13:15:00.724Z,25.0
2018-09-27T13:16:02.024Z,25.1
2018-09-27T13:17:03.415Z,25.1
2018-09-27T13:18:04.805Z,25.2
2018-09-27T13:19:06.248Z,25.4
2018-09-27T13:20:07.695Z,25.5
2018-09-27T13:21:09.045Z,25.5
2018-09-27T13:22:10.450Z,25.5
2018-09-27T13:23:11.870Z,25.5
2018-09-27T13:24:13.282Z,25.6
2018-09-27T13:25:14.688Z,25.5
2018-09-27T13:26:16.064Z,25.5
2018-09-27T13:27:17.493Z,25.5
2018-09-27T13:28:18.888Z,25.5
2018-09-27T13:29:20.308Z,25.4
2018-09-27T13:30:21.738Z,25.4
2018-09-27T13:31:23.126Z,25.4
2018-09-27T13:32:24.548Z,25.4
2018-09-27T13:33:25.916Z,25.3
2018-09-27T13:34:27.339Z,25.2
2018-09-27T13:35:28.733Z,25.2
2018-09-27T13:36:30.132Z,25.1
2018-09-27T13:37:31.518Z,25.0
2018-09-27T13:38:32.914Z,25.1
2018-09-27T13:39:34.317Z,25.1
2018-09-27T13:40:35.777Z,25.1
2018-09-27T13:41:37.162Z,25.1
2018-09-27T13:42:38.575Z,25.1
2018-09-27T13:43:39.963Z,25.2
2018-09-27T13:44:41.353Z,25.1
2018-09-27T13:45:42.753Z,25.2
2018-09-27T13:46:44.149Z,25.2
2018-09-27T13:47:45.575Z,25.2
2018-09-27T13:48:46.960Z,25.3
2018-09-27T13:49:48.546Z,25.2
2018-09-27T13:50:49.973Z,25.2
2018-09-27T13:51:51.324Z,25.1
2018-09-27T13:52:52.704Z,25.2